Timeline UpdatesTrip UpdatesNews PostsPvt PostsTravel TipsAdmin PostsConv PostsFollowed PostsChat RequestsBlog PostsPNR Posts

Disclaimer
Search
 
 
Wed Jul 30, 2014 20:40:02 ISTHomeTrainsΣChainsAtlasPNRForumGalleryNewsFAQTripsMembersLoginFeedback
Latest...
.
Sat Feb 22, 2014 (11:15PM)
⇐ Return Journey: Train# 58502

58501/Visakhapatnam - Kirandul Passenger

Jul 30 departure has been CANCELLED from JDB/Jagdalpur to KRDL/Kirandul
Jul 11 2013 (9:20PM)
Change Departure Station:
Change Arrival Station:
Post a Train Travel TipPost a Train Travel Tip **new
Post a Comment/Question/Picture/VideoPost a Comment/Question/Picture/Video
Pantry/Catering
✕ NO Pantry Car
✕ NO Catering
RSA - Rake Sharing
Rake/Coach Composition
One First Class, o­ne Sleeper Class, Two Second Class Chair Cars, 05 General Second Class Coaches and two Guard cum luggage vans.; News#123359
Loco
Official Loco Link:- VSKP WAG-5
News    PNR    Forum    Time-Table    Availability    Fare Chart    Map    Arr/Dep History    Trips    Gallery    ΣChains    X/O    Timeline    
Travel Time: 13h 55m    49 halts    Distance: 469 km    Avg Speed: 33 km/hr
Type: Passenger
Zone: ECoR/East Coast
Departs @ 06:50 (Avg 4m late)
Platform# 5
SMTWTFS
Visakhapatnam Junction/VSKP 
Arrives @ 20:45 (Avg 1h 12m late)
Platform# ???
SMTWTFS
Kirandul/KRDL 

49 halts. 53 intermediate Stations between Visakhapatnam Junction and Kirandul

Show ALL intermediate Stations  Show Old Time-Table

#CodeStation NameX/OArrivesAvgDepartsAvgHaltPFDay#KmSpeedElevZoneAddress
1VSKP»Visakhapatnam Junction (8)»  -06:50+4510.02511mECoRVishakhapatnam 530001, Andhra Pradesh
2MIPMMarripalem (2)  07:01+807:02+81m214.52917mECoRVishakhapatnam, Andhra Pradesh
3SCMSimhachalam (2)X  07:09+2207:10+231m217.95027mECoRVisakhapatnam, Andhra Pradesh
4PDTPendurti (7)  07:21+1507:22+171m--117.25927mECoRVisakhapatnam, Andhra Pradesh
5KTVKottavalasa Junction (5)  07:31+1907:32+221m3126.04958mECoRVizianagaram District, Andhra Pradesh
6MVWMallividu  07:43+2707:44+271m--135.04976mECoRCoastal Andhra Region, Andhra Pradesh
7SUPShrungavarapukota  08:05+3108:06+331m--152.031103mECoRSrungavarapu kota, Andhra Pradesh
8BDVRBoddavara  08:20+3208:21+341m--159.332159mECoRECoR, Andhra Pradesh
9SLPMShivalingapuram  08:44+3208:45+331m--171.437332mECoRCoastal Andhra Region, Andhra Pradesh
10TXDTyada  08:56+3708:57+411m--178.127422mECoRVishakhapatnam, Andhra Pradesh
11CMDPChimidipalli  09:20+4109:21+421m--188.428606mECoRBorra, Andhra Pradesh
12BGHUBorra Guhalu (1)  09:39+3909:40+461m1197.038725mECoRBorra Guhalu, Andhra Pradesh
13KVLSKarakavalasa  09:57+4909:58+501m--1107.827891mECoRCoastal Andhra Region, Andhra Pradesh
14SMLGShimiliguda (1)  10:17+4810:18+481m11116.3341004mECoRWay to Araku, Andhra Pradesh
15ARKAraku (1)  10:40+4410:45+545m11128.644925mECoRAraku . ph.no. 08936-249672, Andhra Pradesh
16GPJGorapur  10:58+1:0010:59+1:001m--1138.243910mECoRJeypore Rd, Andhra Pradesh
17DPCDarliput  11:16+1:0311:17+1:041m--1150.551867mECoRDarliput, Odisha
18PFUPadua  11:29+1:0711:30+1:081m--1160.651877mECoRPaduwa Station, Odisha
19BHJABheja  11:42+1:1211:43+1:121m--1170.949886mECoRBheja Station, Odisha
20MKRDMachhakunda  11:57+1:1511:58+1:151m--1182.354880mECoRPadwa Rd, Odisha
21PBVPaliba  12:12+1:2012:13+1:211m--1195.023911mECoRPaliba Station, Odisha
22SUKUSuku  12:33+1:1212:34+1:171m--1202.732905mECoRSuku, Odisha
23KRPUKoraput Junction (3)X  12:55+1:0813:00+1:145m--1213.927881mECoRkoraput ph.no. 06852-251502, Odisha
24MVFManabar  13:15+1:1713:16+1:241m--1220.743834mECoRManabar Station, Odisha
25JRTJarti  13:29+1:2613:30+1:341m--1229.933768mECoRJarti Station, Odisha
26MVGMaliguraX  13:50+1:3313:51+1:371m--1240.941662mECoRMaligura Station, Odisha
27CTSChattriput  14:01+1:3814:02+1:401m--1247.921621mECoRJeypore, Odisha
28JYPJeypore (1)  14:22+1:3114:23+1:341m--1254.960595mECoRJeypore, Odisha
29DIRDhanapur Orissa  14:32+1:3514:33+1:381m--1263.954559mECoRNational Highway 43, Odisha
30KDPAKhadapa  14:42+1:3914:43+1:401m--1272.021595mECoRKhadapa, Odisha
31CJSCharamula KusumX  14:53+1:3914:54+1:401m--1275.559592mECoRBhansuli Kotpad PMGSY Rd, Chhattisgarh
32KPRRKotapar Road  15:06+1:3915:07+1:411m--1287.451552mECoRBhansuli Kotpad PMGSY Rd, Chhattisgarh
33AGBAmbagaon  15:16+1:4115:17+1:411m--1295.054549mECoRAmbagaon, Chhattisgarh
34AGZAmagura  15:28+1:4115:29+1:411m--1304.953562mECoRMarkel, Chhattisgarh
35NKXNakati Semra  15:38+1:4415:39+1:441m--1312.819562mECoRJagdalpur, Chhattisgarh
36JDBJagdalpur  16:00+1:4016:05+1:405m--1319.359569mECoRJagdalpur, Chhattisgarh
37KMEZKumar Maranga  16:14+1:2516:15+1:251m--1328.155561mECoRNational Highway 16, Chhattisgarh
38TPQTopokal  16:24+1:2616:25+1:261m--1336.435557mECoRRaikot, Chhattisgarh
39BDXXBade Arapur  16:34+1:2616:35+1:271m--1341.741578mECoRBade Arapur, Chhattisgarh
40DMKDilmili  16:52+1:2816:53+1:331m--1353.439703mECoRDilmili, Chhattisgarh
41SZYSilak Jhori  17:10+1:3517:11+1:351m--1364.442702mECoRKodenar, Chhattisgarh
42KMSDKumar Sadra  17:24+1:3717:25+1:381m--1373.451656mECoRTirthum, Chhattisgarh
43KKLUKaklur  17:40+1:4417:41+1:441m--1386.248576mECoRKaklur, Chhattisgarh
44KWGNKawargaon  17:56+1:4817:57+1:491m--1398.341527mECoRKawargaon, Chhattisgarh
45DBFDabpal  18:10+1:4918:11+1:491m--1407.247464mECoRDabpal, Chhattisgarh
46GIZGidam  18:25+1:5218:26+1:521m--1418.130408mECoRNational Highway 16, Chhattisgarh
47DWZDantewara  18:41+1:4818:42+1:491m11425.535362mECoRDantewada, Chhattisgarh
48KMLRKamalur  19:03+1:5319:04+1:531m--1437.943434mECoRKamalur, Chhattisgarh
49BHNSBhansi  19:21+1:5019:22+1:511m--1450.238521mECoRDhurli-Basenpur Rd, Chhattisgarh
50BCHLBacheli  19:38+2:0019:39+2:021m--1460.48608mECoRDhurli-Basenpur Rd, Chhattisgarh
51KRDL•Kirandul•  20:45+1:12---1469.0-631mECoRKirandul, Chhattisgarh
Scroll to Top
Scroll to Bottom